sensor_id;sensor_type;location;lat;lon;timestamp;P1;durP1;ratioP1;P2;durP2;ratioP2
669;SDS011;317;48.758;9.302;2022-08-01T00:02:15;2.57;;;2.37;;
669;SDS011;317;48.758;9.302;2022-08-01T00:04:44;2.57;;;2.37;;
669;SDS011;317;48.758;9.302;2022-08-01T00:07:11;2.50;;;2.30;;
669;SDS011;317;48.758;9.302;2022-08-01T00:09:39;3.43;;;2.87;;
669;SDS011;317;48.758;9.302;2022-08-01T00:12:06;2.50;;;2.30;;
669;SDS011;317;48.758;9.302;2022-08-01T00:14:33;2.90;;;2.70;;
669;SDS011;317;48.758;9.302;2022-08-01T00:17:00;3.50;;;2.43;;
669;SDS011;317;48.758;9.302;2022-08-01T00:19:27;2.23;;;2.03;;
669;SDS011;317;48.758;9.302;2022-08-01T00:21:55;2.30;;;2.20;;
669;SDS011;317;48.758;9.302;2022-08-01T00:24:22;3.00;;;2.43;;
669;SDS011;317;48.758;9.302;2022-08-01T00:26:48;4.90;;;2.33;;
669;SDS011;317;48.758;9.302;2022-08-01T00:29:15;3.20;;;2.43;;
669;SDS011;317;48.758;9.302;2022-08-01T00:31:42;2.90;;;2.60;;
669;SDS011;317;48.758;9.302;2022-08-01T00:34:09;4.63;;;2.80;;
669;SDS011;317;48.758;9.302;2022-08-01T00:36:36;5.57;;;2.70;;
669;SDS011;317;48.758;9.302;2022-08-01T00:39:04;2.23;;;2.13;;
669;SDS011;317;48.758;9.302;2022-08-01T00:41:31;2.30;;;2.10;;
669;SDS011;317;48.758;9.302;2022-08-01T00:43:58;2.60;;;2.40;;
669;SDS011;317;48.758;9.302;2022-08-01T00:46:27;2.20;;;2.10;;
669;SDS011;317;48.758;9.302;2022-08-01T00:48:54;2.60;;;2.40;;
669;SDS011;317;48.758;9.302;2022-08-01T00:51:21;2.63;;;2.40;;
669;SDS011;317;48.758;9.302;2022-08-01T00:53:48;2.43;;;2.20;;
669;SDS011;317;48.758;9.302;2022-08-01T00:56:18;2.37;;;2.17;;
669;SDS011;317;48.758;9.302;2022-08-01T00:58:45;3.40;;;2.80;;
669;SDS011;317;48.758;9.302;2022-08-01T01:01:12;2.90;;;2.60;;
669;SDS011;317;48.758;9.302;2022-08-01T01:03:39;3.57;;;3.00;;
669;SDS011;317;48.758;9.302;2022-08-01T01:06:13;2.37;;;2.10;;
669;SDS011;317;48.758;9.302;2022-08-01T01:08:54;2.73;;;2.53;;
669;SDS011;317;48.758;9.302;2022-08-01T01:11:36;3.20;;;2.90;;
669;SDS011;317;48.758;9.302;2022-08-01T01:14:13;3.17;;;2.97;;
669;SDS011;317;48.758;9.302;2022-08-01T01:16:49;2.90;;;2.70;;
669;SDS011;317;48.758;9.302;2022-08-01T01:19:20;2.60;;;2.40;;
669;SDS011;317;48.758;9.302;2022-08-01T01:21:58;2.90;;;2.70;;
669;SDS011;317;48.758;9.302;2022-08-01T01:24:37;2.30;;;2.10;;
669;SDS011;317;48.758;9.302;2022-08-01T01:27:14;3.80;;;2.80;;
669;SDS011;317;48.758;9.302;2022-08-01T01:29:52;2.80;;;2.60;;
669;SDS011;317;48.758;9.302;2022-08-01T01:32:22;3.40;;;2.50;;
669;SDS011;317;48.758;9.302;2022-08-01T01:34:54;3.20;;;2.90;;
669;SDS011;317;48.758;9.302;2022-08-01T01:37:23;3.20;;;3.00;;
669;SDS011;317;48.758;9.302;2022-08-01T01:39:52;3.07;;;2.73;;
669;SDS011;317;48.758;9.302;2022-08-01T01:42:20;2.83;;;2.60;;
669;SDS011;317;48.758;9.302;2022-08-01T01:44:54;3.33;;;3.13;;
669;SDS011;317;48.758;9.302;2022-08-01T01:47:21;3.47;;;2.97;;
669;SDS011;317;48.758;9.302;2022-08-01T01:49:49;2.50;;;2.30;;
669;SDS011;317;48.758;9.302;2022-08-01T01:52:18;2.83;;;2.60;;
669;SDS011;317;48.758;9.302;2022-08-01T01:54:46;2.97;;;2.77;;
669;SDS011;317;48.758;9.302;2022-08-01T01:57:16;4.23;;;2.90;;
669;SDS011;317;48.758;9.302;2022-08-01T01:59:45;3.00;;;2.80;;
669;SDS011;317;48.758;9.302;2022-08-01T02:02:15;2.60;;;2.50;;
669;SDS011;317;48.758;9.302;2022-08-01T02:04:44;3.53;;;2.50;;
669;SDS011;317;48.758;9.302;2022-08-01T02:07:13;3.20;;;3.00;;
669;SDS011;317;48.758;9.302;2022-08-01T02:09:43;2.83;;;2.63;;
669;SDS011;317;48.758;9.302;2022-08-01T02:12:12;2.90;;;2.70;;
669;SDS011;317;48.758;9.302;2022-08-01T02:14:40;3.20;;;3.00;;
669;SDS011;317;48.758;9.302;2022-08-01T02:17:10;2.97;;;2.77;;
669;SDS011;317;48.758;9.302;2022-08-01T02:19:39;2.87;;;2.67;;
669;SDS011;317;48.758;9.302;2022-08-01T02:22:07;3.27;;;2.80;;
669;SDS011;317;48.758;9.302;2022-08-01T02:24:39;3.33;;;2.90;;
669;SDS011;317;48.758;9.302;2022-08-01T02:27:11;3.50;;;2.77;;
669;SDS011;317;48.758;9.302;2022-08-01T02:29:42;4.20;;;3.30;;
669;SDS011;317;48.758;9.302;2022-08-01T02:32:14;2.80;;;2.60;;
669;SDS011;317;48.758;9.302;2022-08-01T02:34:47;3.47;;;3.10;;
669;SDS011;317;48.758;9.302;2022-08-01T02:37:17;2.80;;;2.60;;
669;SDS011;317;48.758;9.302;2022-08-01T02:39:45;3.53;;;3.30;;
669;SDS011;317;48.758;9.302;2022-08-01T02:42:14;2.87;;;2.70;;
669;SDS011;317;48.758;9.302;2022-08-01T02:44:42;3.73;;;3.53;;
669;SDS011;317;48.758;9.302;2022-08-01T02:47:10;2.60;;;2.40;;
669;SDS011;317;48.758;9.302;2022-08-01T02:49:39;3.20;;;3.00;;
669;SDS011;317;48.758;9.302;2022-08-01T02:52:11;3.93;;;3.63;;
669;SDS011;317;48.758;9.302;2022-08-01T02:54:39;2.90;;;2.70;;
669;SDS011;317;48.758;9.302;2022-08-01T02:57:08;3.60;;;2.67;;
669;SDS011;317;48.758;9.302;2022-08-01T02:59:36;3.20;;;2.90;;
669;SDS011;317;48.758;9.302;2022-08-01T03:02:04;3.40;;;3.20;;
669;SDS011;317;48.758;9.302;2022-08-01T03:04:33;3.20;;;3.00;;
669;SDS011;317;48.758;9.302;2022-08-01T03:07:02;3.87;;;3.30;;
669;SDS011;317;48.758;9.302;2022-08-01T03:09:32;3.60;;;3.30;;
669;SDS011;317;48.758;9.302;2022-08-01T03:12:02;3.03;;;2.83;;
669;SDS011;317;48.758;9.302;2022-08-01T03:14:35;3.20;;;2.90;;
669;SDS011;317;48.758;9.302;2022-08-01T03:17:04;3.63;;;3.33;;
669;SDS011;317;48.758;9.302;2022-08-01T03:19:34;3.20;;;2.90;;
669;SDS011;317;48.758;9.302;2022-08-01T03:22:02;2.83;;;2.60;;
669;SDS011;317;48.758;9.302;2022-08-01T03:24:33;3.53;;;2.40;;
669;SDS011;317;48.758;9.302;2022-08-01T03:27:02;5.77;;;2.80;;
669;SDS011;317;48.758;9.302;2022-08-01T03:29:30;2.80;;;2.60;;
669;SDS011;317;48.758;9.302;2022-08-01T03:31:58;3.00;;;2.80;;
669;SDS011;317;48.758;9.302;2022-08-01T03:34:27;2.50;;;2.33;;
669;SDS011;317;48.758;9.302;2022-08-01T03:36:55;2.60;;;2.50;;
669;SDS011;317;48.758;9.302;2022-08-01T03:39:29;2.37;;;2.27;;
669;SDS011;317;48.758;9.302;2022-08-01T03:42:01;2.87;;;2.70;;
669;SDS011;317;48.758;9.302;2022-08-01T03:44:33;2.40;;;2.13;;
669;SDS011;317;48.758;9.302;2022-08-01T03:47:05;2.77;;;2.53;;
669;SDS011;317;48.758;9.302;2022-08-01T03:49:40;3.17;;;2.50;;
669;SDS011;317;48.758;9.302;2022-08-01T03:52:10;2.60;;;2.40;;
669;SDS011;317;48.758;9.302;2022-08-01T03:54:40;2.50;;;2.20;;
669;SDS011;317;48.758;9.302;2022-08-01T03:57:11;2.43;;;2.23;;
669;SDS011;317;48.758;9.302;2022-08-01T03:59:39;3.00;;;2.70;;
669;SDS011;317;48.758;9.302;2022-08-01T04:02:06;3.97;;;2.67;;
669;SDS011;317;48.758;9.302;2022-08-01T04:04:34;4.20;;;3.33;;
669;SDS011;317;48.758;9.302;2022-08-01T04:07:01;2.73;;;2.53;;
669;SDS011;317;48.758;9.302;2022-08-01T04:09:31;2.90;;;2.20;;
669;SDS011;317;48.758;9.302;2022-08-01T04:11:59;2.17;;;2.07;;
669;SDS011;317;48.758;9.302;2022-08-01T04:14:27;3.30;;;3.00;;
669;SDS011;317;48.758;9.302;2022-08-01T04:16:54;2.70;;;2.50;;
669;SDS011;317;48.758;9.302;2022-08-01T04:19:21;4.13;;;2.17;;
669;SDS011;317;48.758;9.302;2022-08-01T04:21:48;3.97;;;3.17;;
669;SDS011;317;48.758;9.302;2022-08-01T04:24:16;3.17;;;2.87;;
669;SDS011;317;48.758;9.302;2022-08-01T04:26:45;2.57;;;2.23;;
669;SDS011;317;48.758;9.302;2022-08-01T04:29:14;2.33;;;2.10;;
669;SDS011;317;48.758;9.302;2022-08-01T04:31:45;2.70;;;2.43;;
669;SDS011;317;48.758;9.302;2022-08-01T04:34:14;2.93;;;2.63;;
669;SDS011;317;48.758;9.302;2022-08-01T04:36:43;4.73;;;3.00;;
669;SDS011;317;48.758;9.302;2022-08-01T04:39:11;5.30;;;3.40;;
669;SDS011;317;48.758;9.302;2022-08-01T04:41:40;5.57;;;3.00;;
669;SDS011;317;48.758;9.302;2022-08-01T04:44:07;3.57;;;3.37;;
669;SDS011;317;48.758;9.302;2022-08-01T04:46:34;3.90;;;3.00;;
669;SDS011;317;48.758;9.302;2022-08-01T04:49:04;3.60;;;3.30;;
669;SDS011;317;48.758;9.302;2022-08-01T04:51:33;4.80;;;3.27;;
669;SDS011;317;48.758;9.302;2022-08-01T04:54:01;3.40;;;3.20;;
669;SDS011;317;48.758;9.302;2022-08-01T04:56:28;4.03;;;2.67;;
669;SDS011;317;48.758;9.302;2022-08-01T04:58:55;3.30;;;3.10;;
669;SDS011;317;48.758;9.302;2022-08-01T05:01:39;3.57;;;3.37;;
669;SDS011;317;48.758;9.302;2022-08-01T05:04:08;3.37;;;3.07;;
669;SDS011;317;48.758;9.302;2022-08-01T05:06:35;3.77;;;3.47;;
669;SDS011;317;48.758;9.302;2022-08-01T05:09:01;3.70;;;3.40;;
669;SDS011;317;48.758;9.302;2022-08-01T05:11:28;5.40;;;3.17;;
669;SDS011;317;48.758;9.302;2022-08-01T05:13:55;3.70;;;3.40;;
669;SDS011;317;48.758;9.302;2022-08-01T05:16:22;4.57;;;4.20;;
669;SDS011;317;48.758;9.302;2022-08-01T05:18:49;3.80;;;3.50;;
669;SDS011;317;48.758;9.302;2022-08-01T05:21:18;4.37;;;3.43;;
669;SDS011;317;48.758;9.302;2022-08-01T05:23:45;3.40;;;3.20;;
669;SDS011;317;48.758;9.302;2022-08-01T05:26:14;6.23;;;3.80;;
669;SDS011;317;48.758;9.302;2022-08-01T05:28:40;4.47;;;2.93;;
669;SDS011;317;48.758;9.302;2022-08-01T05:31:07;3.07;;;2.77;;
669;SDS011;317;48.758;9.302;2022-08-01T05:33:35;4.13;;;3.83;;
669;SDS011;317;48.758;9.302;2022-08-01T05:36:02;3.43;;;3.13;;
669;SDS011;317;48.758;9.302;2022-08-01T05:38:31;3.90;;;3.60;;
669;SDS011;317;48.758;9.302;2022-08-01T05:40:58;3.63;;;3.33;;
669;SDS011;317;48.758;9.302;2022-08-01T05:43:24;3.60;;;3.07;;
669;SDS011;317;48.758;9.302;2022-08-01T05:45:51;3.20;;;2.63;;
669;SDS011;317;48.758;9.302;2022-08-01T05:48:18;5.73;;;2.57;;
669;SDS011;317;48.758;9.302;2022-08-01T05:50:45;3.63;;;3.03;;
669;SDS011;317;48.758;9.302;2022-08-01T05:53:12;3.03;;;2.83;;
669;SDS011;317;48.758;9.302;2022-08-01T05:55:41;3.60;;;3.10;;
669;SDS011;317;48.758;9.302;2022-08-01T05:58:08;3.70;;;3.40;;
669;SDS011;317;48.758;9.302;2022-08-01T06:00:34;4.80;;;3.20;;
669;SDS011;317;48.758;9.302;2022-08-01T06:03:01;4.10;;;2.97;;
669;SDS011;317;48.758;9.302;2022-08-01T06:05:28;3.80;;;3.50;;
669;SDS011;317;48.758;9.302;2022-08-01T06:07:55;4.43;;;2.77;;
669;SDS011;317;48.758;9.302;2022-08-01T06:10:23;4.13;;;3.73;;
669;SDS011;317;48.758;9.302;2022-08-01T06:12:51;4.10;;;3.77;;
669;SDS011;317;48.758;9.302;2022-08-01T06:15:18;2.97;;;2.77;;
669;SDS011;317;48.758;9.302;2022-08-01T06:17:44;4.57;;;2.63;;
669;SDS011;317;48.758;9.302;2022-08-01T06:20:11;4.50;;;3.50;;
669;SDS011;317;48.758;9.302;2022-08-01T06:22:38;4.90;;;3.57;;
669;SDS011;317;48.758;9.302;2022-08-01T06:25:05;6.43;;;3.50;;
669;SDS011;317;48.758;9.302;2022-08-01T06:27:33;4.17;;;3.27;;
669;SDS011;317;48.758;9.302;2022-08-01T06:30:02;3.73;;;3.37;;
669;SDS011;317;48.758;9.302;2022-08-01T06:32:29;3.33;;;2.80;;
669;SDS011;317;48.758;9.302;2022-08-01T06:34:56;5.50;;;3.07;;
669;SDS011;317;48.758;9.302;2022-08-01T06:37:23;4.20;;;3.10;;
669;SDS011;317;48.758;9.302;2022-08-01T06:39:54;2.93;;;2.63;;
669;SDS011;317;48.758;9.302;2022-08-01T06:42:20;3.20;;;3.00;;
669;SDS011;317;48.758;9.302;2022-08-01T06:44:47;3.40;;;3.10;;
669;SDS011;317;48.758;9.302;2022-08-01T06:47:15;3.77;;;3.03;;
669;SDS011;317;48.758;9.302;2022-08-01T06:49:43;2.83;;;2.53;;
669;SDS011;317;48.758;9.302;2022-08-01T06:52:10;3.13;;;2.80;;
669;SDS011;317;48.758;9.302;2022-08-01T06:54:36;3.13;;;2.93;;
669;SDS011;317;48.758;9.302;2022-08-01T06:57:04;2.60;;;2.37;;
669;SDS011;317;48.758;9.302;2022-08-01T06:59:31;3.60;;;3.00;;
669;SDS011;317;48.758;9.302;2022-08-01T07:01:58;2.57;;;2.37;;
669;SDS011;317;48.758;9.302;2022-08-01T07:04:27;5.77;;;2.33;;
669;SDS011;317;48.758;9.302;2022-08-01T07:06:54;3.47;;;2.07;;
669;SDS011;317;48.758;9.302;2022-08-01T07:09:21;3.40;;;2.00;;
669;SDS011;317;48.758;9.302;2022-08-01T07:11:47;2.20;;;1.80;;
669;SDS011;317;48.758;9.302;2022-08-01T07:14:15;1.87;;;1.77;;
669;SDS011;317;48.758;9.302;2022-08-01T07:16:42;4.53;;;2.20;;
669;SDS011;317;48.758;9.302;2022-08-01T07:19:09;2.97;;;2.17;;
669;SDS011;317;48.758;9.302;2022-08-01T07:21:37;2.60;;;2.40;;
669;SDS011;317;48.758;9.302;2022-08-01T07:24:04;4.80;;;2.07;;
669;SDS011;317;48.758;9.302;2022-08-01T07:26:32;3.60;;;2.00;;
669;SDS011;317;48.758;9.302;2022-08-01T07:28:59;6.93;;;1.90;;
669;SDS011;317;48.758;9.302;2022-08-01T07:31:26;3.73;;;2.07;;
669;SDS011;317;48.758;9.302;2022-08-01T07:33:52;1.93;;;1.80;;
669;SDS011;317;48.758;9.302;2022-08-01T07:36:21;2.27;;;1.93;;
669;SDS011;317;48.758;9.302;2022-08-01T07:38:49;1.80;;;1.70;;
669;SDS011;317;48.758;9.302;2022-08-01T07:41:16;1.63;;;1.53;;
669;SDS011;317;48.758;9.302;2022-08-01T07:43:43;1.57;;;1.47;;
669;SDS011;317;48.758;9.302;2022-08-01T07:46:10;2.30;;;1.70;;
669;SDS011;317;48.758;9.302;2022-08-01T07:48:36;1.33;;;1.23;;
669;SDS011;317;48.758;9.302;2022-08-01T07:51:03;1.70;;;1.60;;
669;SDS011;317;48.758;9.302;2022-08-01T07:53:30;1.80;;;1.60;;
669;SDS011;317;48.758;9.302;2022-08-01T07:55:58;2.87;;;1.20;;
669;SDS011;317;48.758;9.302;2022-08-01T07:58:27;4.10;;;2.47;;
669;SDS011;317;48.758;9.302;2022-08-01T08:00:55;1.83;;;1.70;;
669;SDS011;317;48.758;9.302;2022-08-01T08:03:21;2.43;;;1.87;;
669;SDS011;317;48.758;9.302;2022-08-01T08:05:48;1.87;;;1.77;;
669;SDS011;317;48.758;9.302;2022-08-01T08:08:15;2.07;;;1.77;;
669;SDS011;317;48.758;9.302;2022-08-01T08:10:43;1.47;;;1.37;;
669;SDS011;317;48.758;9.302;2022-08-01T08:13:11;1.83;;;1.73;;
669;SDS011;317;48.758;9.302;2022-08-01T08:15:38;1.70;;;1.60;;
669;SDS011;317;48.758;9.302;2022-08-01T08:18:05;4.97;;;1.63;;
669;SDS011;317;48.758;9.302;2022-08-01T08:20:32;2.50;;;2.23;;
669;SDS011;317;48.758;9.302;2022-08-01T08:22:59;1.77;;;1.67;;
669;SDS011;317;48.758;9.302;2022-08-01T08:25:26;1.77;;;1.67;;
669;SDS011;317;48.758;9.302;2022-08-01T08:27:53;2.97;;;1.80;;
669;SDS011;317;48.758;9.302;2022-08-01T08:30:22;2.60;;;1.67;;
669;SDS011;317;48.758;9.302;2022-08-01T08:32:50;1.93;;;1.80;;
669;SDS011;317;48.758;9.302;2022-08-01T08:35:17;1.97;;;1.83;;
669;SDS011;317;48.758;9.302;2022-08-01T08:37:44;3.03;;;1.93;;
669;SDS011;317;48.758;9.302;2022-08-01T08:40:11;2.03;;;1.20;;
669;SDS011;317;48.758;9.302;2022-08-01T08:42:38;1.90;;;1.80;;
669;SDS011;317;48.758;9.302;2022-08-01T08:45:07;2.17;;;1.97;;
669;SDS011;317;48.758;9.302;2022-08-01T08:47:36;2.07;;;1.87;;
669;SDS011;317;48.758;9.302;2022-08-01T08:50:03;2.57;;;1.70;;
669;SDS011;317;48.758;9.302;2022-08-01T08:52:33;2.40;;;2.20;;
669;SDS011;317;48.758;9.302;2022-08-01T08:55:04;1.80;;;1.70;;
669;SDS011;317;48.758;9.302;2022-08-01T08:57:32;4.63;;;2.10;;
669;SDS011;317;48.758;9.302;2022-08-01T08:59:59;2.03;;;1.80;;
669;SDS011;317;48.758;9.302;2022-08-01T09:02:26;1.80;;;1.70;;
669;SDS011;317;48.758;9.302;2022-08-01T09:04:54;2.43;;;2.00;;
669;SDS011;317;48.758;9.302;2022-08-01T09:07:21;2.23;;;1.90;;
669;SDS011;317;48.758;9.302;2022-08-01T09:09:50;3.90;;;2.13;;
669;SDS011;317;48.758;9.302;2022-08-01T09:12:17;2.33;;;2.10;;
669;SDS011;317;48.758;9.302;2022-08-01T09:14:45;2.97;;;2.67;;
669;SDS011;317;48.758;9.302;2022-08-01T09:17:15;3.27;;;2.73;;
669;SDS011;317;48.758;9.302;2022-08-01T09:19:42;4.70;;;2.73;;
669;SDS011;317;48.758;9.302;2022-08-01T09:22:12;2.73;;;2.53;;
669;SDS011;317;48.758;9.302;2022-08-01T09:24:52;3.27;;;2.80;;
669;SDS011;317;48.758;9.302;2022-08-01T09:27:23;4.70;;;3.83;;
669;SDS011;317;48.758;9.302;2022-08-01T09:29:51;5.40;;;4.97;;
669;SDS011;317;48.758;9.302;2022-08-01T09:32:18;6.37;;;4.50;;
669;SDS011;317;48.758;9.302;2022-08-01T09:34:46;4.63;;;4.23;;
669;SDS011;317;48.758;9.302;2022-08-01T09:37:14;4.63;;;4.23;;
669;SDS011;317;48.758;9.302;2022-08-01T09:39:43;4.37;;;3.83;;
669;SDS011;317;48.758;9.302;2022-08-01T09:42:20;4.20;;;3.90;;
669;SDS011;317;48.758;9.302;2022-08-01T09:44:49;4.00;;;3.70;;
669;SDS011;317;48.758;9.302;2022-08-01T09:47:16;3.93;;;3.53;;
669;SDS011;317;48.758;9.302;2022-08-01T09:49:46;4.73;;;4.33;;
669;SDS011;317;48.758;9.302;2022-08-01T09:52:22;6.70;;;3.70;;
669;SDS011;317;48.758;9.302;2022-08-01T09:54:51;5.10;;;4.60;;
669;SDS011;317;48.758;9.302;2022-08-01T09:57:20;4.07;;;3.67;;
669;SDS011;317;48.758;9.302;2022-08-01T09:59:48;4.07;;;3.77;;
669;SDS011;317;48.758;9.302;2022-08-01T10:02:26;4.23;;;3.83;;
669;SDS011;317;48.758;9.302;2022-08-01T10:04:54;4.40;;;4.03;;
669;SDS011;317;48.758;9.302;2022-08-01T10:07:22;5.13;;;4.73;;
669;SDS011;317;48.758;9.302;2022-08-01T10:09:49;4.67;;;4.20;;
669;SDS011;317;48.758;9.302;2022-08-01T10:12:17;4.50;;;4.20;;
669;SDS011;317;48.758;9.302;2022-08-01T10:14:47;5.10;;;4.70;;
669;SDS011;317;48.758;9.302;2022-08-01T10:17:15;5.30;;;4.80;;
669;SDS011;317;48.758;9.302;2022-08-01T10:19:44;4.87;;;4.47;;
669;SDS011;317;48.758;9.302;2022-08-01T10:22:13;4.37;;;4.07;;
669;SDS011;317;48.758;9.302;2022-08-01T10:24:43;7.17;;;4.00;;
669;SDS011;317;48.758;9.302;2022-08-01T10:27:13;7.00;;;3.40;;
669;SDS011;317;48.758;9.302;2022-08-01T10:29:46;4.20;;;3.80;;
669;SDS011;317;48.758;9.302;2022-08-01T10:32:28;4.00;;;3.70;;
669;SDS011;317;48.758;9.302;2022-08-01T10:34:56;4.03;;;3.63;;
669;SDS011;317;48.758;9.302;2022-08-01T10:37:23;4.23;;;3.93;;
669;SDS011;317;48.758;9.302;2022-08-01T10:39:51;4.90;;;4.50;;
669;SDS011;317;48.758;9.302;2022-08-01T10:42:19;5.47;;;4.83;;
669;SDS011;317;48.758;9.302;2022-08-01T10:44:47;5.20;;;4.80;;
669;SDS011;317;48.758;9.302;2022-08-01T10:47:16;4.90;;;4.47;;
669;SDS011;317;48.758;9.302;2022-08-01T10:49:47;4.60;;;4.23;;
669;SDS011;317;48.758;9.302;2022-08-01T10:52:17;4.50;;;4.20;;
669;SDS011;317;48.758;9.302;2022-08-01T10:54:44;3.40;;;3.20;;
669;SDS011;317;48.758;9.302;2022-08-01T10:57:13;4.30;;;3.93;;
669;SDS011;317;48.758;9.302;2022-08-01T10:59:49;3.47;;;3.20;;
669;SDS011;317;48.758;9.302;2022-08-01T11:02:25;3.63;;;3.23;;
669;SDS011;317;48.758;9.302;2022-08-01T11:04:54;3.70;;;3.40;;
669;SDS011;317;48.758;9.302;2022-08-01T11:07:24;3.40;;;3.10;;
669;SDS011;317;48.758;9.302;2022-08-01T11:10:08;4.63;;;3.00;;
669;SDS011;317;48.758;9.302;2022-08-01T11:12:43;2.93;;;2.63;;
669;SDS011;317;48.758;9.302;2022-08-01T11:15:19;3.27;;;3.07;;
669;SDS011;317;48.758;9.302;2022-08-01T11:17:51;2.67;;;2.47;;
669;SDS011;317;48.758;9.302;2022-08-01T11:20:20;4.77;;;3.17;;
669;SDS011;317;48.758;9.302;2022-08-01T11:26:06;3.43;;;2.60;;
669;SDS011;317;48.758;9.302;2022-08-01T11:28:44;4.10;;;3.20;;
669;SDS011;317;48.758;9.302;2022-08-01T11:31:32;2.80;;;2.60;;
669;SDS011;317;48.758;9.302;2022-08-01T11:34:00;2.50;;;2.30;;
669;SDS011;317;48.758;9.302;2022-08-01T11:36:27;2.90;;;2.70;;
669;SDS011;317;48.758;9.302;2022-08-01T11:39:15;2.77;;;2.67;;
669;SDS011;317;48.758;9.302;2022-08-01T11:41:43;2.67;;;2.50;;
669;SDS011;317;48.758;9.302;2022-08-01T11:44:14;4.43;;;2.87;;
669;SDS011;317;48.758;9.302;2022-08-01T11:46:53;4.43;;;3.10;;
669;SDS011;317;48.758;9.302;2022-08-01T11:49:22;3.27;;;3.07;;
669;SDS011;317;48.758;9.302;2022-08-01T11:51:59;3.40;;;3.20;;
669;SDS011;317;48.758;9.302;2022-08-01T11:54:28;2.73;;;2.53;;
669;SDS011;317;48.758;9.302;2022-08-01T11:56:57;2.37;;;2.27;;
669;SDS011;317;48.758;9.302;2022-08-01T11:59:27;2.77;;;2.53;;
669;SDS011;317;48.758;9.302;2022-08-01T12:01:54;2.90;;;2.70;;
669;SDS011;317;48.758;9.302;2022-08-01T12:04:21;2.53;;;2.33;;
669;SDS011;317;48.758;9.302;2022-08-01T12:06:49;3.00;;;2.57;;
669;SDS011;317;48.758;9.302;2022-08-01T12:09:19;3.70;;;2.83;;
669;SDS011;317;48.758;9.302;2022-08-01T12:11:48;2.80;;;2.60;;
669;SDS011;317;48.758;9.302;2022-08-01T12:14:16;3.57;;;2.43;;
669;SDS011;317;48.758;9.302;2022-08-01T12:16:50;2.60;;;2.40;;
669;SDS011;317;48.758;9.302;2022-08-01T12:19:19;3.47;;;3.17;;
669;SDS011;317;48.758;9.302;2022-08-01T12:22:06;2.93;;;2.73;;
669;SDS011;317;48.758;9.302;2022-08-01T12:24:34;2.87;;;2.67;;
669;SDS011;317;48.758;9.302;2022-08-01T12:27:01;5.43;;;2.97;;
669;SDS011;317;48.758;9.302;2022-08-01T12:29:35;5.03;;;2.63;;
669;SDS011;317;48.758;9.302;2022-08-01T12:32:19;2.50;;;2.30;;
669;SDS011;317;48.758;9.302;2022-08-01T12:34:48;3.33;;;2.47;;
669;SDS011;317;48.758;9.302;2022-08-01T12:37:15;2.67;;;2.37;;
669;SDS011;317;48.758;9.302;2022-08-01T12:39:42;2.50;;;2.40;;
669;SDS011;317;48.758;9.302;2022-08-01T12:42:10;3.80;;;3.60;;
669;SDS011;317;48.758;9.302;2022-08-01T12:44:38;5.33;;;4.60;;
669;SDS011;317;48.758;9.302;2022-08-01T12:47:08;4.60;;;4.40;;
669;SDS011;317;48.758;9.302;2022-08-01T12:49:36;4.20;;;4.00;;
669;SDS011;317;48.758;9.302;2022-08-01T12:52:04;5.20;;;4.80;;
669;SDS011;317;48.758;9.302;2022-08-01T12:57:29;4.50;;;4.10;;
669;SDS011;317;48.758;9.302;2022-08-01T13:00:07;4.70;;;4.30;;
669;SDS011;317;48.758;9.302;2022-08-01T13:02:41;3.97;;;3.67;;
669;SDS011;317;48.758;9.302;2022-08-01T13:05:09;3.53;;;3.33;;
669;SDS011;317;48.758;9.302;2022-08-01T13:07:46;3.27;;;3.07;;
669;SDS011;317;48.758;9.302;2022-08-01T13:10:23;3.50;;;3.10;;
669;SDS011;317;48.758;9.302;2022-08-01T13:12:52;3.90;;;3.03;;
669;SDS011;317;48.758;9.302;2022-08-01T13:15:23;3.70;;;3.40;;
669;SDS011;317;48.758;9.302;2022-08-01T13:17:58;3.37;;;3.17;;
669;SDS011;317;48.758;9.302;2022-08-01T13:20:30;2.93;;;2.63;;
669;SDS011;317;48.758;9.302;2022-08-01T13:25:47;2.23;;;2.00;;
669;SDS011;317;48.758;9.302;2022-08-01T13:28:15;2.57;;;2.37;;
669;SDS011;317;48.758;9.302;2022-08-01T13:30:58;2.60;;;2.13;;
669;SDS011;317;48.758;9.302;2022-08-01T13:33:28;5.23;;;2.37;;
669;SDS011;317;48.758;9.302;2022-08-01T13:36:06;2.30;;;2.10;;
669;SDS011;317;48.758;9.302;2022-08-01T13:38:35;2.00;;;1.90;;
669;SDS011;317;48.758;9.302;2022-08-01T13:41:23;3.03;;;2.10;;
669;SDS011;317;48.758;9.302;2022-08-01T13:43:50;2.13;;;2.03;;
669;SDS011;317;48.758;9.302;2022-08-01T13:46:17;2.17;;;2.07;;
669;SDS011;317;48.758;9.302;2022-08-01T13:48:46;3.53;;;2.27;;
669;SDS011;317;48.758;9.302;2022-08-01T13:51:13;2.20;;;2.10;;
669;SDS011;317;48.758;9.302;2022-08-01T13:53:39;4.80;;;2.53;;
669;SDS011;317;48.758;9.302;2022-08-01T13:56:06;2.60;;;2.30;;
669;SDS011;317;48.758;9.302;2022-08-01T13:58:33;2.20;;;2.00;;
669;SDS011;317;48.758;9.302;2022-08-01T14:01:00;2.87;;;2.00;;
669;SDS011;317;48.758;9.302;2022-08-01T14:03:27;2.20;;;2.00;;
669;SDS011;317;48.758;9.302;2022-08-01T14:05:55;2.37;;;2.10;;
669;SDS011;317;48.758;9.302;2022-08-01T14:08:22;1.90;;;1.80;;
669;SDS011;317;48.758;9.302;2022-08-01T14:10:49;3.10;;;2.27;;
669;SDS011;317;48.758;9.302;2022-08-01T14:13:17;1.87;;;1.60;;
669;SDS011;317;48.758;9.302;2022-08-01T14:15:43;2.30;;;2.10;;
669;SDS011;317;48.758;9.302;2022-08-01T14:18:10;2.50;;;2.30;;
669;SDS011;317;48.758;9.302;2022-08-01T14:20:37;2.10;;;1.77;;
669;SDS011;317;48.758;9.302;2022-08-01T14:23:06;2.53;;;2.20;;
669;SDS011;317;48.758;9.302;2022-08-01T14:25:33;2.20;;;2.10;;
669;SDS011;317;48.758;9.302;2022-08-01T14:28:00;2.60;;;2.40;;
669;SDS011;317;48.758;9.302;2022-08-01T14:30:27;2.33;;;2.13;;
669;SDS011;317;48.758;9.302;2022-08-01T14:32:54;2.37;;;2.20;;
669;SDS011;317;48.758;9.302;2022-08-01T14:35:21;2.27;;;2.07;;
669;SDS011;317;48.758;9.302;2022-08-01T14:37:48;3.63;;;2.07;;
669;SDS011;317;48.758;9.302;2022-08-01T14:40:16;2.63;;;2.43;;
669;SDS011;317;48.758;9.302;2022-08-01T14:42:43;2.80;;;1.80;;
669;SDS011;317;48.758;9.302;2022-08-01T14:45:10;2.53;;;1.87;;
669;SDS011;317;48.758;9.302;2022-08-01T14:47:39;2.90;;;2.03;;
669;SDS011;317;48.758;9.302;2022-08-01T14:50:08;2.40;;;2.20;;
669;SDS011;317;48.758;9.302;2022-08-01T14:52:37;4.87;;;2.30;;
669;SDS011;317;48.758;9.302;2022-08-01T14:55:05;2.53;;;2.33;;
669;SDS011;317;48.758;9.302;2022-08-01T14:57:34;4.03;;;1.80;;
669;SDS011;317;48.758;9.302;2022-08-01T15:00:02;2.97;;;2.30;;
669;SDS011;317;48.758;9.302;2022-08-01T15:02:31;2.33;;;2.13;;
669;SDS011;317;48.758;9.302;2022-08-01T15:04:57;2.10;;;2.00;;
669;SDS011;317;48.758;9.302;2022-08-01T15:07:24;2.77;;;1.80;;
669;SDS011;317;48.758;9.302;2022-08-01T15:09:51;2.40;;;1.97;;
669;SDS011;317;48.758;9.302;2022-08-01T15:12:18;4.37;;;2.10;;
669;SDS011;317;48.758;9.302;2022-08-01T15:14:46;3.03;;;2.10;;
669;SDS011;317;48.758;9.302;2022-08-01T15:17:13;2.33;;;2.13;;
669;SDS011;317;48.758;9.302;2022-08-01T15:19:40;2.17;;;1.97;;
669;SDS011;317;48.758;9.302;2022-08-01T15:22:07;2.00;;;1.80;;
669;SDS011;317;48.758;9.302;2022-08-01T15:24:34;2.53;;;1.80;;
669;SDS011;317;48.758;9.302;2022-08-01T15:27:01;1.87;;;1.77;;
669;SDS011;317;48.758;9.302;2022-08-01T15:29:28;6.37;;;1.80;;
669;SDS011;317;48.758;9.302;2022-08-01T15:31:57;3.00;;;1.70;;
669;SDS011;317;48.758;9.302;2022-08-01T15:34:24;2.27;;;2.07;;
669;SDS011;317;48.758;9.302;2022-08-01T15:36:51;1.80;;;1.70;;
669;SDS011;317;48.758;9.302;2022-08-01T15:39:18;3.93;;;2.20;;
669;SDS011;317;48.758;9.302;2022-08-01T15:41:45;1.90;;;1.80;;
669;SDS011;317;48.758;9.302;2022-08-01T15:44:12;2.63;;;1.67;;
669;SDS011;317;48.758;9.302;2022-08-01T15:46:39;2.20;;;2.00;;
669;SDS011;317;48.758;9.302;2022-08-01T15:49:07;3.40;;;1.80;;
669;SDS011;317;48.758;9.302;2022-08-01T15:51:35;1.80;;;1.70;;
669;SDS011;317;48.758;9.302;2022-08-01T15:54:02;2.27;;;1.83;;
669;SDS011;317;48.758;9.302;2022-08-01T15:56:31;2.20;;;2.10;;
669;SDS011;317;48.758;9.302;2022-08-01T15:58:58;2.80;;;1.83;;
669;SDS011;317;48.758;9.302;2022-08-01T16:01:25;2.13;;;1.70;;
669;SDS011;317;48.758;9.302;2022-08-01T16:03:53;1.80;;;1.70;;
669;SDS011;317;48.758;9.302;2022-08-01T16:06:22;1.77;;;1.67;;